createdAt,value
2023-03-17T00:01:17.162Z,80.07
2023-03-17T00:03:46.354Z,80.03
2023-03-17T00:06:17.757Z,80.04
2023-03-17T00:08:46.293Z,80.14
2023-03-17T00:11:16.070Z,79.39
2023-03-17T00:13:44.586Z,80.32
2023-03-17T00:16:17.140Z,80.01
2023-03-17T00:18:44.766Z,79.36
2023-03-17T00:21:17.506Z,80.18
2023-03-17T00:23:49.695Z,79.68
2023-03-17T00:26:16.589Z,80.66
2023-03-17T00:28:43.308Z,79.74
2023-03-17T00:31:15.247Z,79.79
2023-03-17T00:33:43.231Z,80.61
2023-03-17T00:36:15.744Z,80.47
2023-03-17T00:38:42.603Z,79.46
2023-03-17T00:41:10.874Z,79.74
2023-03-17T00:43:37.382Z,79.78
2023-03-17T00:46:14.744Z,79.70
2023-03-17T00:48:43.501Z,80.84
2023-03-17T00:51:11.430Z,79.92
2023-03-17T00:53:38.009Z,80.59
2023-03-17T00:56:11.861Z,79.63
2023-03-17T00:58:38.410Z,80.56
2023-03-17T01:01:05.184Z,80.44
2023-03-17T01:03:33.092Z,80.30
2023-03-17T01:06:00.468Z,80.88
2023-03-17T01:08:30.088Z,80.81
2023-03-17T01:10:57.281Z,80.16
2023-03-17T01:13:24.312Z,79.79
2023-03-17T01:15:52.413Z,79.71
2023-03-17T01:18:22.776Z,80.40
2023-03-17T01:20:50.573Z,80.31
2023-03-17T01:23:17.629Z,80.53
2023-03-17T01:25:44.599Z,79.84
2023-03-17T01:28:16.793Z,79.79
2023-03-17T01:30:43.773Z,80.75
2023-03-17T01:33:13.467Z,80.31
2023-03-17T01:35:41.923Z,81.00
2023-03-17T01:38:09.908Z,80.06
2023-03-17T01:40:42.632Z,80.95
2023-03-17T01:54:48.302Z,80.08
2023-03-17T01:59:55.578Z,80.55
2023-03-17T02:02:28.932Z,80.75
2023-03-17T02:04:55.515Z,80.22
2023-03-17T02:07:24.025Z,80.82
2023-03-17T02:09:52.619Z,81.14
2023-03-17T02:12:22.447Z,80.46
2023-03-17T02:14:48.995Z,81.11
2023-03-17T02:17:15.544Z,80.97
2023-03-17T02:19:42.534Z,80.62
2023-03-17T02:22:09.253Z,80.50
2023-03-17T02:27:18.096Z,80.35
2023-03-17T02:29:46.439Z,80.82
2023-03-17T02:32:15.805Z,80.71
2023-03-17T02:34:42.394Z,80.99
2023-03-17T02:37:09.244Z,80.83
2023-03-17T02:39:36.398Z,80.59
2023-03-17T02:42:04.172Z,81.36
2023-03-17T02:44:31.487Z,80.14
2023-03-17T02:46:59.092Z,80.73
2023-03-17T02:49:27.287Z,80.76
2023-03-17T02:51:54.273Z,80.63
2023-03-17T02:54:20.868Z,79.85
2023-03-17T02:56:47.413Z,81.02
2023-03-17T02:59:14.008Z,79.95
2023-03-17T03:01:40.637Z,80.69
2023-03-17T03:04:07.505Z,80.66
2023-03-17T03:06:34.438Z,80.31
2023-03-17T03:09:01.003Z,80.74
2023-03-17T03:11:29.346Z,80.70
2023-03-17T03:13:56.259Z,80.12
2023-03-17T03:16:22.972Z,80.51
2023-03-17T03:18:49.619Z,80.44
2023-03-17T03:21:16.194Z,81.22
2023-03-17T03:23:43.340Z,80.57
2023-03-17T03:26:09.922Z,80.27
2023-03-17T03:28:36.485Z,80.98
2023-03-17T03:31:03.435Z,81.06
2023-03-17T03:33:30.026Z,80.71
2023-03-17T03:35:57.042Z,80.43
2023-03-17T03:38:23.666Z,80.73
2023-03-17T03:40:50.177Z,80.38
2023-03-17T03:43:23.400Z,80.88
2023-03-17T03:45:51.377Z,81.03
2023-03-17T03:48:18.535Z,80.39
2023-03-17T03:50:45.721Z,81.13
2023-03-17T03:53:12.278Z,80.42
2023-03-17T03:55:38.825Z,80.28
2023-03-17T03:58:05.417Z,80.66
2023-03-17T04:00:33.037Z,81.17
2023-03-17T04:03:00.657Z,81.11
2023-03-17T04:05:27.368Z,80.81
2023-03-17T04:07:54.084Z,81.21
2023-03-17T04:10:20.651Z,81.26
2023-03-17T04:12:47.288Z,81.81
2023-03-17T04:15:16.869Z,81.69
2023-03-17T04:17:44.464Z,81.19
2023-03-17T04:20:13.228Z,81.45
2023-03-17T04:22:41.750Z,81.47
2023-03-17T04:25:10.322Z,81.36
2023-03-17T04:27:37.521Z,82.33
2023-03-17T04:30:05.466Z,81.42
2023-03-17T04:32:32.251Z,81.58
2023-03-17T04:34:58.890Z,81.49
2023-03-17T04:37:25.742Z,81.38
2023-03-17T04:39:52.339Z,81.22
2023-03-17T04:42:19.205Z,81.50
2023-03-17T04:44:46.236Z,81.44
2023-03-17T04:47:12.781Z,81.48
2023-03-17T04:49:39.495Z,81.35
2023-03-17T04:52:06.785Z,81.58
2023-03-17T04:54:33.360Z,81.56
2023-03-17T04:56:59.968Z,81.26
2023-03-17T04:59:27.368Z,81.61
2023-03-17T05:01:53.919Z,80.89
2023-03-17T05:04:31.144Z,80.96
2023-03-17T05:06:58.292Z,81.10
2023-03-17T05:09:26.924Z,81.14
2023-03-17T05:11:53.576Z,81.40
2023-03-17T05:14:20.522Z,81.20
2023-03-17T05:16:48.471Z,80.66
2023-03-17T05:19:16.411Z,81.07
2023-03-17T05:21:43.008Z,80.93
2023-03-17T05:24:09.977Z,80.45
2023-03-17T05:26:36.561Z,80.79
2023-03-17T05:29:03.529Z,81.33
2023-03-17T05:31:31.102Z,81.02
2023-03-17T05:33:58.874Z,80.75
2023-03-17T05:36:25.572Z,81.52
2023-03-17T05:38:52.488Z,81.08
2023-03-17T05:41:19.329Z,81.09
2023-03-17T05:43:46.140Z,80.80
2023-03-17T05:46:13.017Z,81.47
2023-03-17T05:48:39.612Z,81.54
2023-03-17T05:51:06.596Z,81.45
2023-03-17T05:53:33.397Z,81.64
2023-03-17T05:55:59.921Z,81.46
2023-03-17T05:58:26.936Z,81.39
2023-03-17T06:00:53.662Z,81.53
2023-03-17T06:03:21.450Z,81.18
2023-03-17T06:05:48.256Z,81.01
2023-03-17T06:08:15.057Z,80.90
2023-03-17T06:10:43.115Z,81.46
2023-03-17T06:13:11.123Z,81.25
2023-03-17T06:15:37.852Z,81.09
2023-03-17T06:18:05.705Z,80.66
2023-03-17T06:20:33.159Z,80.82
2023-03-17T06:23:05.563Z,80.99
2023-03-17T06:25:34.463Z,81.58
2023-03-17T06:28:02.882Z,81.01
2023-03-17T06:30:30.799Z,81.57
2023-03-17T06:32:57.396Z,82.20
2023-03-17T06:35:24.802Z,81.81
2023-03-17T06:37:51.687Z,81.51
2023-03-17T06:40:18.369Z,82.26
2023-03-17T06:42:45.065Z,82.32
2023-03-17T06:45:12.925Z,81.93
2023-03-17T06:47:39.820Z,82.11
2023-03-17T06:50:09.712Z,82.15
2023-03-17T06:52:37.283Z,82.36
2023-03-17T06:55:04.484Z,82.89
2023-03-17T06:57:31.811Z,82.88
2023-03-17T06:59:58.844Z,82.61
2023-03-17T07:02:25.565Z,83.03
2023-03-17T07:04:52.335Z,82.80
2023-03-17T07:07:20.836Z,82.65
2023-03-17T07:09:47.914Z,82.72
2023-03-17T07:12:14.683Z,82.84
2023-03-17T07:14:41.774Z,83.08
2023-03-17T07:17:12.921Z,83.11
2023-03-17T07:19:40.656Z,83.42
2023-03-17T07:22:08.212Z,83.43
2023-03-17T07:24:34.789Z,83.22
2023-03-17T07:27:01.476Z,83.37
2023-03-17T07:29:29.314Z,83.62
2023-03-17T07:31:56.102Z,82.64
2023-03-17T07:34:23.209Z,83.31
2023-03-17T07:36:49.837Z,82.97
2023-03-17T07:39:16.755Z,83.40
2023-03-17T07:41:44.291Z,83.06
2023-03-17T07:44:11.502Z,84.11
2023-03-17T07:46:39.071Z,83.27
2023-03-17T07:49:06.292Z,83.20
2023-03-17T07:51:33.119Z,83.77
2023-03-17T07:54:04.015Z,83.33
2023-03-17T07:56:32.869Z,80.87
2023-03-17T07:58:59.992Z,79.73
2023-03-17T08:01:27.963Z,78.14
2023-03-17T08:03:55.703Z,78.80
2023-03-17T08:06:24.577Z,77.73
2023-03-17T08:08:52.436Z,77.97
2023-03-17T08:11:20.060Z,77.35
2023-03-17T08:13:47.906Z,77.64
2023-03-17T08:16:14.468Z,78.14
2023-03-17T08:18:41.168Z,78.26
2023-03-17T08:21:07.995Z,78.93
2023-03-17T08:23:34.698Z,78.30
2023-03-17T08:26:03.328Z,78.49
2023-03-17T08:28:30.717Z,79.31
2023-03-17T08:31:17.163Z,79.48
2023-03-17T08:33:48.732Z,79.50
2023-03-17T08:36:18.619Z,78.21
2023-03-17T08:38:46.685Z,78.79
2023-03-17T08:41:16.713Z,79.36
2023-03-17T08:43:43.973Z,78.31
2023-03-17T08:48:56.533Z,76.66
2023-03-17T08:51:26.690Z,77.50
2023-03-17T08:53:54.996Z,77.89
2023-03-17T08:56:22.703Z,76.66
2023-03-17T08:58:49.505Z,77.05
2023-03-17T09:01:17.263Z,77.21
2023-03-17T09:03:45.221Z,77.64
2023-03-17T09:06:12.380Z,76.51
2023-03-17T09:08:44.541Z,76.92
2023-03-17T09:11:14.166Z,77.67
2023-03-17T09:13:41.516Z,77.59
2023-03-17T09:16:08.951Z,77.00
2023-03-17T09:18:35.946Z,76.77
2023-03-17T09:21:03.692Z,75.71
2023-03-17T09:23:30.284Z,75.96
2023-03-17T09:25:57.237Z,76.27
2023-03-17T09:28:24.675Z,75.44
2023-03-17T09:30:51.589Z,74.18
2023-03-17T09:33:19.026Z,73.08
2023-03-17T09:35:45.608Z,71.32
2023-03-17T09:38:12.834Z,70.05
2023-03-17T09:40:48.037Z,69.88
2023-03-17T09:45:52.255Z,68.78
2023-03-17T09:48:44.791Z,67.74
2023-03-17T09:51:15.528Z,69.60
2023-03-17T09:53:51.409Z,68.17
2023-03-17T09:56:20.047Z,67.69
2023-03-17T09:58:52.984Z,68.08
2023-03-17T10:01:19.945Z,67.74
2023-03-17T10:03:47.548Z,67.44
2023-03-17T10:06:36.834Z,67.92
2023-03-17T10:11:44.196Z,69.59
2023-03-17T10:14:28.661Z,69.68
2023-03-17T10:17:05.842Z,70.15
2023-03-17T10:19:41.724Z,70.48
2023-03-17T10:24:57.649Z,70.81
2023-03-17T10:27:24.945Z,70.59
2023-03-17T10:29:51.645Z,70.96
2023-03-17T10:32:18.222Z,71.67
2023-03-17T10:34:45.104Z,71.79
2023-03-17T10:39:53.504Z,71.93
2023-03-17T10:45:20.814Z,71.24
2023-03-17T10:47:50.085Z,71.15
2023-03-17T10:53:27.946Z,70.68
2023-03-17T10:56:01.067Z,70.09
2023-03-17T11:01:17.888Z,69.93
2023-03-17T11:03:44.572Z,69.37
2023-03-17T11:06:14.954Z,69.28
2023-03-17T11:08:49.675Z,69.45
2023-03-17T11:11:35.429Z,69.53
2023-03-17T11:22:16.706Z,68.53
2023-03-17T11:24:56.879Z,69.06
2023-03-17T11:27:36.966Z,68.54
2023-03-17T11:32:50.937Z,68.11
2023-03-17T11:38:22.387Z,67.81
2023-03-17T11:46:50.710Z,67.37
2023-03-17T11:52:03.970Z,67.56
2023-03-17T12:03:08.744Z,67.69
2023-03-17T12:05:37.275Z,67.29
2023-03-17T12:10:46.293Z,66.53
2023-03-17T12:13:19.561Z,67.15
2023-03-17T12:15:52.905Z,66.78
2023-03-17T12:18:34.756Z,67.12
2023-03-17T12:21:11.970Z,66.86
2023-03-17T12:27:05.977Z,65.96
2023-03-17T12:32:26.451Z,65.18
2023-03-17T12:34:57.490Z,65.56
2023-03-17T12:37:27.514Z,66.11
2023-03-17T12:42:42.584Z,64.69
2023-03-17T12:51:06.880Z,63.57
2023-03-17T12:53:36.772Z,63.85
2023-03-17T12:56:10.278Z,64.66
2023-03-17T12:58:45.212Z,64.56
2023-03-17T13:04:27.858Z,62.10
2023-03-17T13:23:42.701Z,62.98
2023-03-17T13:26:13.333Z,62.44
2023-03-17T13:28:43.758Z,62.80
2023-03-17T13:31:35.460Z,62.39
2023-03-17T13:36:47.990Z,62.61
2023-03-17T13:39:54.546Z,62.45
2023-03-17T13:45:34.500Z,61.72
2023-03-17T13:48:37.513Z,61.59
2023-03-17T13:53:49.551Z,62.32
2023-03-17T13:56:22.448Z,61.22
2023-03-17T13:59:05.978Z,60.04
2023-03-17T14:01:40.849Z,60.64
2023-03-17T14:04:17.661Z,61.05
2023-03-17T14:06:46.785Z,61.14
2023-03-17T14:09:38.034Z,59.59
2023-03-17T14:12:36.793Z,60.99
2023-03-17T14:15:16.525Z,60.72
2023-03-17T14:17:50.357Z,60.12
2023-03-17T14:22:57.400Z,59.91
2023-03-17T14:25:30.890Z,59.59
2023-03-17T14:27:58.358Z,60.44
2023-03-17T14:30:28.675Z,61.00
2023-03-17T14:33:02.186Z,60.33
2023-03-17T14:35:32.151Z,60.74
2023-03-17T14:38:00.311Z,60.76
2023-03-17T14:40:32.364Z,60.47
2023-03-17T14:42:58.944Z,60.79
2023-03-17T14:45:48.577Z,60.97
2023-03-17T14:48:18.018Z,61.10
2023-03-17T14:50:55.852Z,61.11
2023-03-17T14:53:24.244Z,61.52
2023-03-17T14:55:52.825Z,61.16
2023-03-17T14:58:31.360Z,61.07
2023-03-17T15:01:15.051Z,61.28
2023-03-17T15:03:56.366Z,61.88
2023-03-17T15:06:29.952Z,62.23
2023-03-17T15:09:00.443Z,62.30
2023-03-17T15:11:36.834Z,61.27
2023-03-17T15:14:12.618Z,61.07
2023-03-17T15:16:40.900Z,61.84
2023-03-17T15:19:19.448Z,62.60
2023-03-17T15:21:46.297Z,62.67
2023-03-17T15:24:36.472Z,63.08
2023-03-17T15:27:11.261Z,63.07
2023-03-17T15:29:37.819Z,62.67
2023-03-17T15:32:12.765Z,62.86
2023-03-17T15:34:40.689Z,62.95
2023-03-17T15:37:17.576Z,62.71
2023-03-17T15:39:44.104Z,63.16
2023-03-17T15:42:11.097Z,62.20
2023-03-17T15:44:37.777Z,61.88
2023-03-17T15:47:04.993Z,61.41
2023-03-17T15:49:31.575Z,61.54
2023-03-17T15:51:58.120Z,61.81
2023-03-17T15:54:24.744Z,61.79
2023-03-17T15:56:51.507Z,61.52
2023-03-17T15:59:21.452Z,61.04
2023-03-17T16:01:49.436Z,61.89
2023-03-17T16:04:17.973Z,61.98
2023-03-17T16:06:44.738Z,62.10
2023-03-17T16:09:15.395Z,62.07
2023-03-17T16:11:41.986Z,61.93
2023-03-17T16:14:10.573Z,62.03
2023-03-17T16:16:40.976Z,62.13
2023-03-17T16:19:16.345Z,62.21
2023-03-17T16:21:43.355Z,62.40
2023-03-17T16:24:18.871Z,62.41
2023-03-17T16:26:45.672Z,62.55
2023-03-17T16:29:14.510Z,62.93
2023-03-17T16:31:41.406Z,63.34
2023-03-17T16:34:17.028Z,62.22
2023-03-17T16:36:44.080Z,62.56
2023-03-17T16:39:16.881Z,62.10
2023-03-17T16:41:46.048Z,62.20
2023-03-17T16:44:13.994Z,62.44
2023-03-17T16:46:44.814Z,62.54
2023-03-17T16:49:14.883Z,62.57
2023-03-17T16:51:42.039Z,61.97
2023-03-17T16:54:10.041Z,62.48
2023-03-17T16:56:38.587Z,62.71
2023-03-17T16:59:07.684Z,62.40
2023-03-17T17:01:34.689Z,62.73
2023-03-17T17:04:01.401Z,62.45
2023-03-17T17:06:28.084Z,62.95
2023-03-17T17:08:54.758Z,62.68
2023-03-17T17:11:21.652Z,62.96
2023-03-17T17:13:49.416Z,63.13
2023-03-17T17:16:29.329Z,63.25
2023-03-17T17:18:57.210Z,63.60
2023-03-17T17:21:23.876Z,63.93
2023-03-17T17:23:52.749Z,63.52
2023-03-17T17:26:19.696Z,63.57
2023-03-17T17:28:46.410Z,63.58
2023-03-17T17:31:13.032Z,63.81
2023-03-17T17:33:40.073Z,63.74
2023-03-17T17:36:12.723Z,64.22
2023-03-17T17:38:39.312Z,63.93
2023-03-17T17:41:07.034Z,63.71
2023-03-17T17:43:33.721Z,64.11
2023-03-17T17:46:00.994Z,63.75
2023-03-17T17:48:28.134Z,64.21
2023-03-17T17:50:56.179Z,64.35
2023-03-17T17:53:22.887Z,64.33
2023-03-17T17:55:49.932Z,64.92
2023-03-17T17:58:19.195Z,64.46
2023-03-17T18:00:46.215Z,64.61
2023-03-17T18:03:13.162Z,64.35
2023-03-17T18:05:39.856Z,64.65
2023-03-17T18:08:06.558Z,64.45
2023-03-17T18:10:34.332Z,64.83
2023-03-17T18:13:01.698Z,64.71
2023-03-17T18:15:28.722Z,65.36
2023-03-17T18:17:56.062Z,65.62
2023-03-17T18:20:23.634Z,65.39
2023-03-17T18:22:50.777Z,64.92
2023-03-17T18:25:18.078Z,64.91
2023-03-17T18:27:45.657Z,64.95
2023-03-17T18:30:18.734Z,64.55
2023-03-17T18:32:45.700Z,65.62
2023-03-17T18:35:16.534Z,65.26
2023-03-17T18:37:44.033Z,64.92
2023-03-17T18:40:15.368Z,64.68
2023-03-17T18:42:44.738Z,65.40
2023-03-17T18:45:12.136Z,65.42
2023-03-17T18:47:39.173Z,65.79
2023-03-17T18:50:08.083Z,65.77
2023-03-17T18:52:37.366Z,65.00
2023-03-17T18:55:04.518Z,66.00
2023-03-17T18:57:31.288Z,66.13
2023-03-17T18:59:57.859Z,66.16
2023-03-17T19:02:24.868Z,66.48
2023-03-17T19:04:51.460Z,66.07
2023-03-17T19:07:18.616Z,66.65
2023-03-17T19:09:45.326Z,66.89
2023-03-17T19:12:12.245Z,66.30
2023-03-17T19:14:39.098Z,66.40
2023-03-17T19:17:06.288Z,67.32
2023-03-17T19:19:33.914Z,65.94
2023-03-17T19:22:01.063Z,65.99
2023-03-17T19:24:27.601Z,66.15
2023-03-17T19:26:54.202Z,66.81
2023-03-17T19:29:20.923Z,66.12
2023-03-17T19:31:48.619Z,67.34
2023-03-17T19:34:15.458Z,67.21
2023-03-17T19:36:46.372Z,67.10
2023-03-17T19:39:14.050Z,66.75
2023-03-17T19:41:40.865Z,67.41
2023-03-17T19:44:07.809Z,66.70
2023-03-17T19:46:36.138Z,68.54
2023-03-17T19:49:03.150Z,67.85
2023-03-17T19:51:31.806Z,67.11
2023-03-17T19:53:58.470Z,67.14
2023-03-17T19:56:25.147Z,67.16
2023-03-17T19:58:51.992Z,67.28
2023-03-17T20:01:18.754Z,67.47
2023-03-17T20:03:45.780Z,67.56
2023-03-17T20:06:13.431Z,68.39
2023-03-17T20:08:41.212Z,68.61
2023-03-17T20:11:07.984Z,68.82
2023-03-17T20:13:35.846Z,68.21
2023-03-17T20:16:02.970Z,68.38
2023-03-17T20:18:29.815Z,68.36
2023-03-17T20:20:57.731Z,68.21
2023-03-17T20:23:25.173Z,68.16
2023-03-17T20:25:52.607Z,68.80
2023-03-17T20:28:21.478Z,68.07
2023-03-17T20:30:49.341Z,68.50
2023-03-17T20:33:16.793Z,68.30
2023-03-17T20:35:46.912Z,67.88
2023-03-17T20:38:14.694Z,67.90
2023-03-17T20:40:42.090Z,68.53
2023-03-17T20:43:09.471Z,68.96
2023-03-17T20:45:37.071Z,69.35
2023-03-17T20:48:06.084Z,69.54
2023-03-17T20:50:34.389Z,68.70
2023-03-17T20:53:01.704Z,69.29
2023-03-17T20:55:28.942Z,69.29
2023-03-17T20:57:58.703Z,68.86
2023-03-17T21:00:26.245Z,69.80
2023-03-17T21:02:53.240Z,69.91
2023-03-17T21:05:23.832Z,69.58
2023-03-17T21:07:50.917Z,69.93
2023-03-17T21:10:18.153Z,69.43
2023-03-17T21:12:45.380Z,69.49
2023-03-17T21:15:12.997Z,69.67
2023-03-17T21:17:40.228Z,69.51
2023-03-17T21:20:09.586Z,70.31
2023-03-17T21:22:36.977Z,70.74
2023-03-17T21:25:04.718Z,70.49
2023-03-17T21:27:31.407Z,69.82
2023-03-17T21:29:58.082Z,70.29
2023-03-17T21:32:25.071Z,70.92
2023-03-17T21:34:51.744Z,70.41
2023-03-17T21:37:18.847Z,69.88
2023-03-17T21:39:45.926Z,70.12
2023-03-17T21:42:12.874Z,70.40
2023-03-17T21:44:39.675Z,70.33
2023-03-17T21:47:07.682Z,71.03
2023-03-17T21:49:34.254Z,70.39
2023-03-17T21:52:01.296Z,70.40
2023-03-17T21:54:28.419Z,70.86
2023-03-17T21:56:54.937Z,71.80
2023-03-17T21:59:21.447Z,71.54
2023-03-17T22:01:52.082Z,72.04
2023-03-17T22:04:18.928Z,72.15
2023-03-17T22:06:45.541Z,72.70
2023-03-17T22:09:13.088Z,71.46
2023-03-17T22:11:39.624Z,71.75
2023-03-17T22:14:06.543Z,72.06
2023-03-17T22:16:33.221Z,72.62
2023-03-17T22:19:00.059Z,72.63
2023-03-17T22:21:26.697Z,72.66
2023-03-17T22:23:53.233Z,73.15
2023-03-17T22:26:21.810Z,72.21
2023-03-17T22:28:50.012Z,72.82
2023-03-17T22:31:19.858Z,73.01
2023-03-17T22:33:48.901Z,72.36
2023-03-17T22:36:15.851Z,73.11
2023-03-17T22:38:42.642Z,72.70
2023-03-17T22:41:13.068Z,73.09
2023-03-17T22:43:40.387Z,72.21
2023-03-17T22:46:07.526Z,72.32
2023-03-17T22:48:36.154Z,73.44
2023-03-17T22:51:04.411Z,73.53
2023-03-17T22:53:31.618Z,73.21
2023-03-17T22:55:59.003Z,73.34
2023-03-17T22:58:26.145Z,74.13
2023-03-17T23:00:53.762Z,74.61
2023-03-17T23:03:21.202Z,73.78
2023-03-17T23:05:49.709Z,74.14
2023-03-17T23:08:17.911Z,75.01
2023-03-17T23:10:45.579Z,74.10
2023-03-17T23:13:12.701Z,74.88
2023-03-17T23:15:39.624Z,74.12
2023-03-17T23:18:06.479Z,74.91
2023-03-17T23:20:33.760Z,74.91
2023-03-17T23:23:01.804Z,75.73
2023-03-17T23:25:28.334Z,74.75
2023-03-17T23:27:55.222Z,75.07
2023-03-17T23:30:21.913Z,74.77
2023-03-17T23:32:49.315Z,75.77
2023-03-17T23:35:16.568Z,75.37
2023-03-17T23:37:43.218Z,75.47
2023-03-17T23:40:13.706Z,75.53
2023-03-17T23:42:40.412Z,75.24
2023-03-17T23:45:08.626Z,76.06
2023-03-17T23:47:35.257Z,75.67
2023-03-17T23:50:02.295Z,75.77
2023-03-17T23:52:28.940Z,76.51
2023-03-17T23:54:55.523Z,76.09
2023-03-17T23:57:22.852Z,76.54
2023-03-17T23:59:49.534Z,75.44
